sensor_id;sensor_type;location;lat;lon;timestamp;temperature;humidity
83808;SHT31;73824;40.292;17.998;2024-02-15T00:01:41;10.44;77.81
83808;SHT31;73824;40.292;17.998;2024-02-15T00:04:07;10.32;78.21
83808;SHT31;73824;40.292;17.998;2024-02-15T00:06:32;10.27;78.37
83808;SHT31;73824;40.292;17.998;2024-02-15T00:08:58;10.31;78.16
83808;SHT31;73824;40.292;17.998;2024-02-15T00:11:23;10.22;78.32
83808;SHT31;73824;40.292;17.998;2024-02-15T00:13:49;10.13;78.80
83808;SHT31;73824;40.292;17.998;2024-02-15T00:16:15;10.07;79.02
83808;SHT31;73824;40.292;17.998;2024-02-15T00:18:40;10.10;78.88
83808;SHT31;73824;40.292;17.998;2024-02-15T00:21:06;10.14;78.77
83808;SHT31;73824;40.292;17.998;2024-02-15T00:23:31;10.15;78.70
83808;SHT31;73824;40.292;17.998;2024-02-15T00:25:57;10.04;78.73
83808;SHT31;73824;40.292;17.998;2024-02-15T00:28:23;10.14;78.63
83808;SHT31;73824;40.292;17.998;2024-02-15T00:30:49;10.01;78.90
83808;SHT31;73824;40.292;17.998;2024-02-15T00:33:15;10.03;78.69
83808;SHT31;73824;40.292;17.998;2024-02-15T00:35:41;9.89;79.26
83808;SHT31;73824;40.292;17.998;2024-02-15T00:38:07;9.80;79.44
83808;SHT31;73824;40.292;17.998;2024-02-15T00:40:33;9.79;79.50
83808;SHT31;73824;40.292;17.998;2024-02-15T00:42:58;9.75;79.67
83808;SHT31;73824;40.292;17.998;2024-02-15T00:45:24;9.72;79.75
83808;SHT31;73824;40.292;17.998;2024-02-15T00:47:50;9.69;79.75
83808;SHT31;73824;40.292;17.998;2024-02-15T00:50:15;9.75;79.43
83808;SHT31;73824;40.292;17.998;2024-02-15T00:52:41;9.56;79.96
83808;SHT31;73824;40.292;17.998;2024-02-15T00:55:07;9.46;80.48
83808;SHT31;73824;40.292;17.998;2024-02-15T00:57:32;9.46;80.35
83808;SHT31;73824;40.292;17.998;2024-02-15T00:59:58;9.39;80.96
83808;SHT31;73824;40.292;17.998;2024-02-15T01:02:24;9.40;80.95
83808;SHT31;73824;40.292;17.998;2024-02-15T01:04:51;9.40;81.01
83808;SHT31;73824;40.292;17.998;2024-02-15T01:07:18;9.42;80.59
83808;SHT31;73824;40.292;17.998;2024-02-15T01:09:43;9.40;80.80
83808;SHT31;73824;40.292;17.998;2024-02-15T01:12:10;9.46;80.51
83808;SHT31;73824;40.292;17.998;2024-02-15T01:14:36;9.43;80.56
83808;SHT31;73824;40.292;17.998;2024-02-15T01:17:02;9.36;80.45
83808;SHT31;73824;40.292;17.998;2024-02-15T01:19:28;9.34;80.57
83808;SHT31;73824;40.292;17.998;2024-02-15T01:21:53;9.27;80.84
83808;SHT31;73824;40.292;17.998;2024-02-15T01:24:19;9.39;80.29
83808;SHT31;73824;40.292;17.998;2024-02-15T01:26:44;9.42;80.16
83808;SHT31;73824;40.292;17.998;2024-02-15T01:29:10;9.47;79.97
83808;SHT31;73824;40.292;17.998;2024-02-15T01:31:37;9.39;80.15
83808;SHT31;73824;40.292;17.998;2024-02-15T01:34:04;9.38;80.47
83808;SHT31;73824;40.292;17.998;2024-02-15T01:36:29;9.39;80.30
83808;SHT31;73824;40.292;17.998;2024-02-15T01:38:56;9.31;80.74
83808;SHT31;73824;40.292;17.998;2024-02-15T01:41:21;9.39;80.62
83808;SHT31;73824;40.292;17.998;2024-02-15T01:43:47;9.40;80.51
83808;SHT31;73824;40.292;17.998;2024-02-15T01:46:14;9.46;80.15
83808;SHT31;73824;40.292;17.998;2024-02-15T01:48:41;9.45;80.25
83808;SHT31;73824;40.292;17.998;2024-02-15T01:51:07;9.47;80.38
83808;SHT31;73824;40.292;17.998;2024-02-15T01:53:35;9.45;80.34
83808;SHT31;73824;40.292;17.998;2024-02-15T01:56:01;9.40;80.47
83808;SHT31;73824;40.292;17.998;2024-02-15T01:58:27;9.35;80.49
83808;SHT31;73824;40.292;17.998;2024-02-15T02:00:54;9.31;80.66
83808;SHT31;73824;40.292;17.998;2024-02-15T02:03:21;9.24;81.15
83808;SHT31;73824;40.292;17.998;2024-02-15T02:05:47;9.34;80.99
83808;SHT31;73824;40.292;17.998;2024-02-15T02:08:13;9.35;80.92
83808;SHT31;73824;40.292;17.998;2024-02-15T02:10:39;9.40;80.43
83808;SHT31;73824;40.292;17.998;2024-02-15T02:13:05;9.38;80.40
83808;SHT31;73824;40.292;17.998;2024-02-15T02:15:34;9.24;80.85
83808;SHT31;73824;40.292;17.998;2024-02-15T02:18:03;9.21;81.19
83808;SHT31;73824;40.292;17.998;2024-02-15T02:20:32;9.27;81.23
83808;SHT31;73824;40.292;17.998;2024-02-15T02:23:13;9.29;81.00
83808;SHT31;73824;40.292;17.998;2024-02-15T02:25:39;9.18;81.28
83808;SHT31;73824;40.292;17.998;2024-02-15T02:28:08;9.05;81.53
83808;SHT31;73824;40.292;17.998;2024-02-15T02:30:34;9.05;81.74
83808;SHT31;73824;40.292;17.998;2024-02-15T02:33:00;8.90;81.98
83808;SHT31;73824;40.292;17.998;2024-02-15T02:35:27;8.85;82.36
83808;SHT31;73824;40.292;17.998;2024-02-15T02:37:56;8.91;82.56
83808;SHT31;73824;40.292;17.998;2024-02-15T02:40:22;8.80;82.74
83808;SHT31;73824;40.292;17.998;2024-02-15T02:42:55;8.98;82.39
83808;SHT31;73824;40.292;17.998;2024-02-15T02:45:30;9.00;82.22
83808;SHT31;73824;40.292;17.998;2024-02-15T02:47:55;9.10;82.00
83808;SHT31;73824;40.292;17.998;2024-02-15T02:50:21;9.07;81.56
83808;SHT31;73824;40.292;17.998;2024-02-15T02:52:48;8.98;81.95
83808;SHT31;73824;40.292;17.998;2024-02-15T02:55:14;8.96;81.97
83808;SHT31;73824;40.292;17.998;2024-02-15T02:57:39;8.80;82.25
83808;SHT31;73824;40.292;17.998;2024-02-15T03:00:07;8.87;82.29
83808;SHT31;73824;40.292;17.998;2024-02-15T03:02:42;8.77;82.47
83808;SHT31;73824;40.292;17.998;2024-02-15T03:05:09;8.69;82.51
83808;SHT31;73824;40.292;17.998;2024-02-15T03:07:36;8.67;82.86
83808;SHT31;73824;40.292;17.998;2024-02-15T03:10:02;8.74;82.80
83808;SHT31;73824;40.292;17.998;2024-02-15T03:12:30;8.61;82.97
83808;SHT31;73824;40.292;17.998;2024-02-15T03:14:55;8.69;82.86
83808;SHT31;73824;40.292;17.998;2024-02-15T03:17:25;8.71;82.83
83808;SHT31;73824;40.292;17.998;2024-02-15T03:19:51;8.71;82.43
83808;SHT31;73824;40.292;17.998;2024-02-15T03:22:17;8.69;82.61
83808;SHT31;73824;40.292;17.998;2024-02-15T03:24:42;8.70;82.24
83808;SHT31;73824;40.292;17.998;2024-02-15T03:27:08;8.56;82.59
83808;SHT31;73824;40.292;17.998;2024-02-15T03:29:35;8.56;82.74
83808;SHT31;73824;40.292;17.998;2024-02-15T03:32:02;8.63;82.81
83808;SHT31;73824;40.292;17.998;2024-02-15T03:34:30;8.57;83.08
83808;SHT31;73824;40.292;17.998;2024-02-15T03:36:56;8.50;83.36
83808;SHT31;73824;40.292;17.998;2024-02-15T03:39:22;8.57;83.05
83808;SHT31;73824;40.292;17.998;2024-02-15T03:41:49;8.57;83.16
83808;SHT31;73824;40.292;17.998;2024-02-15T03:44:14;8.54;83.18
83808;SHT31;73824;40.292;17.998;2024-02-15T03:46:40;8.54;83.36
83808;SHT31;73824;40.292;17.998;2024-02-15T03:49:06;8.49;83.38
83808;SHT31;73824;40.292;17.998;2024-02-15T03:51:34;8.50;83.49
83808;SHT31;73824;40.292;17.998;2024-02-15T03:53:59;8.46;83.65
83808;SHT31;73824;40.292;17.998;2024-02-15T03:56:25;8.46;83.62
83808;SHT31;73824;40.292;17.998;2024-02-15T03:58:51;8.45;83.72
83808;SHT31;73824;40.292;17.998;2024-02-15T04:01:17;8.54;83.44
83808;SHT31;73824;40.292;17.998;2024-02-15T04:03:42;8.56;83.17
83808;SHT31;73824;40.292;17.998;2024-02-15T04:06:08;8.40;83.67
83808;SHT31;73824;40.292;17.998;2024-02-15T04:08:36;8.42;83.55
83808;SHT31;73824;40.292;17.998;2024-02-15T04:11:05;8.43;83.64
83808;SHT31;73824;40.292;17.998;2024-02-15T04:13:31;8.43;83.66
83808;SHT31;73824;40.292;17.998;2024-02-15T04:15:57;8.39;83.60
83808;SHT31;73824;40.292;17.998;2024-02-15T04:18:23;8.39;83.67
83808;SHT31;73824;40.292;17.998;2024-02-15T04:20:48;8.31;83.80
83808;SHT31;73824;40.292;17.998;2024-02-15T04:23:14;8.35;83.86
83808;SHT31;73824;40.292;17.998;2024-02-15T04:25:40;8.24;83.77
83808;SHT31;73824;40.292;17.998;2024-02-15T04:28:06;8.19;84.03
83808;SHT31;73824;40.292;17.998;2024-02-15T04:30:34;8.15;84.21
83808;SHT31;73824;40.292;17.998;2024-02-15T04:33:00;8.19;84.05
83808;SHT31;73824;40.292;17.998;2024-02-15T04:35:25;8.12;84.37
83808;SHT31;73824;40.292;17.998;2024-02-15T04:37:53;8.03;84.39
83808;SHT31;73824;40.292;17.998;2024-02-15T04:40:19;8.01;84.48
83808;SHT31;73824;40.292;17.998;2024-02-15T04:42:44;7.99;84.55
83808;SHT31;73824;40.292;17.998;2024-02-15T04:45:12;8.11;84.47
83808;SHT31;73824;40.292;17.998;2024-02-15T04:47:40;8.13;84.00
83808;SHT31;73824;40.292;17.998;2024-02-15T04:50:07;8.12;83.83
83808;SHT31;73824;40.292;17.998;2024-02-15T04:52:33;8.13;83.41
83808;SHT31;73824;40.292;17.998;2024-02-15T04:54:58;7.99;83.29
83808;SHT31;73824;40.292;17.998;2024-02-15T04:57:26;7.88;83.69
83808;SHT31;73824;40.292;17.998;2024-02-15T04:59:55;7.74;84.03
83808;SHT31;73824;40.292;17.998;2024-02-15T05:02:21;7.70;84.28
83808;SHT31;73824;40.292;17.998;2024-02-15T05:04:50;7.64;84.47
83808;SHT31;73824;40.292;17.998;2024-02-15T05:07:20;7.60;84.64
83808;SHT31;73824;40.292;17.998;2024-02-15T05:09:48;7.56;84.91
83808;SHT31;73824;40.292;17.998;2024-02-15T05:12:21;7.50;85.07
83808;SHT31;73824;40.292;17.998;2024-02-15T05:14:47;7.53;85.09
83808;SHT31;73824;40.292;17.998;2024-02-15T05:17:13;7.49;85.02
83808;SHT31;73824;40.292;17.998;2024-02-15T05:19:39;7.50;84.89
83808;SHT31;73824;40.292;17.998;2024-02-15T05:22:05;7.59;84.82
83808;SHT31;73824;40.292;17.998;2024-02-15T05:24:31;7.56;84.71
83808;SHT31;73824;40.292;17.998;2024-02-15T05:26:56;7.50;84.82
83808;SHT31;73824;40.292;17.998;2024-02-15T05:29:22;7.56;84.81
83808;SHT31;73824;40.292;17.998;2024-02-15T05:31:48;7.50;84.84
83808;SHT31;73824;40.292;17.998;2024-02-15T05:34:17;7.49;84.85
83808;SHT31;73824;40.292;17.998;2024-02-15T05:36:42;7.47;84.76
83808;SHT31;73824;40.292;17.998;2024-02-15T05:39:08;7.46;84.89
83808;SHT31;73824;40.292;17.998;2024-02-15T05:41:36;7.47;85.12
83808;SHT31;73824;40.292;17.998;2024-02-15T05:44:02;7.49;85.35
83808;SHT31;73824;40.292;17.998;2024-02-15T05:46:32;7.50;85.51
83808;SHT31;73824;40.292;17.998;2024-02-15T05:49:02;7.59;85.66
83808;SHT31;73824;40.292;17.998;2024-02-15T05:51:27;7.80;84.81
83808;SHT31;73824;40.292;17.998;2024-02-15T05:53:53;7.80;84.67
83808;SHT31;73824;40.292;17.998;2024-02-15T05:56:23;7.84;84.15
83808;SHT31;73824;40.292;17.998;2024-02-15T05:58:49;7.81;84.00
83808;SHT31;73824;40.292;17.998;2024-02-15T06:01:14;7.78;84.25
83808;SHT31;73824;40.292;17.998;2024-02-15T06:03:40;7.88;84.29
83808;SHT31;73824;40.292;17.998;2024-02-15T06:06:07;7.99;84.12
83808;SHT31;73824;40.292;17.998;2024-02-15T06:08:33;7.97;83.29
83808;SHT31;73824;40.292;17.998;2024-02-15T06:10:59;8.06;83.01
83808;SHT31;73824;40.292;17.998;2024-02-15T06:13:25;8.08;82.99
83808;SHT31;73824;40.292;17.998;2024-02-15T06:15:51;8.16;82.79
83808;SHT31;73824;40.292;17.998;2024-02-15T06:18:21;8.19;82.57
83808;SHT31;73824;40.292;17.998;2024-02-15T06:20:49;8.39;82.15
83808;SHT31;73824;40.292;17.998;2024-02-15T06:23:16;8.39;82.13
83808;SHT31;73824;40.292;17.998;2024-02-15T06:25:42;8.49;81.77
83808;SHT31;73824;40.292;17.998;2024-02-15T06:28:08;8.59;81.04
83808;SHT31;73824;40.292;17.998;2024-02-15T06:30:52;8.88;79.78
83808;SHT31;73824;40.292;17.998;2024-02-15T06:33:36;9.75;80.58
83808;SHT31;73824;40.292;17.998;2024-02-15T06:36:20;12.89;69.04
83808;SHT31;73824;40.292;17.998;2024-02-15T06:39:03;15.56;54.69
83808;SHT31;73824;40.292;17.998;2024-02-15T06:41:47;16.97;50.47
83808;SHT31;73824;40.292;17.998;2024-02-15T06:44:13;18.61;47.17
83808;SHT31;73824;40.292;17.998;2024-02-15T06:46:39;19.77;42.25
83808;SHT31;73824;40.292;17.998;2024-02-15T06:49:04;21.48;38.80
83808;SHT31;73824;40.292;17.998;2024-02-15T06:51:30;23.36;37.36
83808;SHT31;73824;40.292;17.998;2024-02-15T06:53:56;25.15;33.49
83808;SHT31;73824;40.292;17.998;2024-02-15T06:56:22;26.17;30.96
83808;SHT31;73824;40.292;17.998;2024-02-15T06:58:49;26.71;29.37
83808;SHT31;73824;40.292;17.998;2024-02-15T07:01:14;26.73;29.19
83808;SHT31;73824;40.292;17.998;2024-02-15T07:03:42;26.07;30.62
83808;SHT31;73824;40.292;17.998;2024-02-15T07:06:10;25.03;31.47
83808;SHT31;73824;40.292;17.998;2024-02-15T07:08:35;26.10;29.05
83808;SHT31;73824;40.292;17.998;2024-02-15T07:11:01;26.27;29.67
83808;SHT31;73824;40.292;17.998;2024-02-15T07:13:29;27.38;28.73
83808;SHT31;73824;40.292;17.998;2024-02-15T07:15:54;26.89;29.13
83808;SHT31;73824;40.292;17.998;2024-02-15T07:18:20;27.10;29.55
83808;SHT31;73824;40.292;17.998;2024-02-15T07:20:47;28.24;27.87
83808;SHT31;73824;40.292;17.998;2024-02-15T07:23:13;29.35;24.89
83808;SHT31;73824;40.292;17.998;2024-02-15T07:25:40;29.40;25.52
83808;SHT31;73824;40.292;17.998;2024-02-15T07:28:05;30.29;24.54
83808;SHT31;73824;40.292;17.998;2024-02-15T07:30:32;30.94;24.10
83808;SHT31;73824;40.292;17.998;2024-02-15T07:32:57;31.55;24.12
83808;SHT31;73824;40.292;17.998;2024-02-15T07:35:23;31.08;23.57
83808;SHT31;73824;40.292;17.998;2024-02-15T07:37:54;29.02;24.75
83808;SHT31;73824;40.292;17.998;2024-02-15T07:40:24;28.01;26.08
83808;SHT31;73824;40.292;17.998;2024-02-15T07:42:54;26.71;27.73
83808;SHT31;73824;40.292;17.998;2024-02-15T07:45:20;28.14;26.24
83808;SHT31;73824;40.292;17.998;2024-02-15T07:47:45;29.16;24.49
83808;SHT31;73824;40.292;17.998;2024-02-15T07:50:11;29.45;24.56
83808;SHT31;73824;40.292;17.998;2024-02-15T07:52:44;29.76;23.97
83808;SHT31;73824;40.292;17.998;2024-02-15T07:55:09;28.79;24.86
83808;SHT31;73824;40.292;17.998;2024-02-15T07:57:35;26.08;28.40
83808;SHT31;73824;40.292;17.998;2024-02-15T08:00:01;26.73;26.96
83808;SHT31;73824;40.292;17.998;2024-02-15T08:02:26;26.39;27.65
83808;SHT31;73824;40.292;17.998;2024-02-15T08:04:54;26.75;27.78
83808;SHT31;73824;40.292;17.998;2024-02-15T08:07:20;27.45;26.48
83808;SHT31;73824;40.292;17.998;2024-02-15T08:09:46;27.13;26.23
83808;SHT31;73824;40.292;17.998;2024-02-15T08:12:12;26.52;26.55
83808;SHT31;73824;40.292;17.998;2024-02-15T08:14:37;23.82;29.72
83808;SHT31;73824;40.292;17.998;2024-02-15T08:17:05;24.91;28.39
83808;SHT31;73824;40.292;17.998;2024-02-15T08:19:33;23.09;30.52
83808;SHT31;73824;40.292;17.998;2024-02-15T08:22:04;22.86;30.90
83808;SHT31;73824;40.292;17.998;2024-02-15T08:24:30;22.57;31.26
83808;SHT31;73824;40.292;17.998;2024-02-15T08:26:56;21.73;32.40
83808;SHT31;73824;40.292;17.998;2024-02-15T08:29:24;23.20;30.42
83808;SHT31;73824;40.292;17.998;2024-02-15T08:31:50;21.94;32.61
83808;SHT31;73824;40.292;17.998;2024-02-15T08:34:15;23.22;30.52
83808;SHT31;73824;40.292;17.998;2024-02-15T08:36:43;22.86;30.29
83808;SHT31;73824;40.292;17.998;2024-02-15T08:39:09;21.80;31.98
83808;SHT31;73824;40.292;17.998;2024-02-15T08:41:38;23.70;29.74
83808;SHT31;73824;40.292;17.998;2024-02-15T08:44:05;23.19;30.43
83808;SHT31;73824;40.292;17.998;2024-02-15T08:46:36;24.84;28.34
83808;SHT31;73824;40.292;17.998;2024-02-15T08:49:02;22.49;31.10
83808;SHT31;73824;40.292;17.998;2024-02-15T08:51:29;22.11;31.82
83808;SHT31;73824;40.292;17.998;2024-02-15T08:53:56;23.02;30.36
83808;SHT31;73824;40.292;17.998;2024-02-15T08:56:21;22.49;31.26
83808;SHT31;73824;40.292;17.998;2024-02-15T08:58:48;23.39;29.87
83808;SHT31;73824;40.292;17.998;2024-02-15T09:01:14;24.90;27.94
83808;SHT31;73824;40.292;17.998;2024-02-15T09:03:40;24.16;28.55
83808;SHT31;73824;40.292;17.998;2024-02-15T09:06:05;23.79;29.06
83808;SHT31;73824;40.292;17.998;2024-02-15T09:08:33;24.41;28.79
83808;SHT31;73824;40.292;17.998;2024-02-15T09:10:59;24.86;28.26
83808;SHT31;73824;40.292;17.998;2024-02-15T09:13:24;23.88;29.29
83808;SHT31;73824;40.292;17.998;2024-02-15T09:15:50;24.77;28.48
83808;SHT31;73824;40.292;17.998;2024-02-15T09:18:15;26.87;25.96
83808;SHT31;73824;40.292;17.998;2024-02-15T09:20:43;24.99;27.76
83808;SHT31;73824;40.292;17.998;2024-02-15T09:23:10;22.57;31.03
83808;SHT31;73824;40.292;17.998;2024-02-15T09:25:41;22.00;31.75
83808;SHT31;73824;40.292;17.998;2024-02-15T09:28:10;23.81;29.20
83808;SHT31;73824;40.292;17.998;2024-02-15T09:30:35;25.32;27.20
83808;SHT31;73824;40.292;17.998;2024-02-15T09:33:01;25.47;27.11
83808;SHT31;73824;40.292;17.998;2024-02-15T09:35:30;24.46;27.94
83808;SHT31;73824;40.292;17.998;2024-02-15T09:37:56;24.73;27.82
83808;SHT31;73824;40.292;17.998;2024-02-15T09:40:22;24.64;27.72
83808;SHT31;73824;40.292;17.998;2024-02-15T09:42:52;23.74;28.74
83808;SHT31;73824;40.292;17.998;2024-02-15T09:45:18;25.14;26.62
83808;SHT31;73824;40.292;17.998;2024-02-15T09:47:46;23.95;28.40
83808;SHT31;73824;40.292;17.998;2024-02-15T09:50:13;24.02;27.94
83808;SHT31;73824;40.292;17.998;2024-02-15T09:52:40;24.74;27.22
83808;SHT31;73824;40.292;17.998;2024-02-15T09:55:07;25.93;26.28
83808;SHT31;73824;40.292;17.998;2024-02-15T09:57:39;24.87;27.13
83808;SHT31;73824;40.292;17.998;2024-02-15T10:00:05;24.30;26.61
83808;SHT31;73824;40.292;17.998;2024-02-15T10:02:35;22.65;28.42
83808;SHT31;73824;40.292;17.998;2024-02-15T10:05:02;21.88;29.95
83808;SHT31;73824;40.292;17.998;2024-02-15T10:07:28;18.95;35.01
83808;SHT31;73824;40.292;17.998;2024-02-15T10:09:54;18.33;36.42
83808;SHT31;73824;40.292;17.998;2024-02-15T10:12:20;18.38;36.24
83808;SHT31;73824;40.292;17.998;2024-02-15T10:14:51;18.22;35.88
83808;SHT31;73824;40.292;17.998;2024-02-15T10:17:20;17.38;36.52
83808;SHT31;73824;40.292;17.998;2024-02-15T10:20:03;16.80;37.93
83808;SHT31;73824;40.292;17.998;2024-02-15T10:22:28;16.96;37.02
83808;SHT31;73824;40.292;17.998;2024-02-15T10:25:10;16.62;35.87
83808;SHT31;73824;40.292;17.998;2024-02-15T10:27:36;17.19;37.20
83808;SHT31;73824;40.292;17.998;2024-02-15T10:30:19;16.71;39.21
83808;SHT31;73824;40.292;17.998;2024-02-15T10:32:46;16.80;38.35
83808;SHT31;73824;40.292;17.998;2024-02-15T10:35:21;17.06;38.15
83808;SHT31;73824;40.292;17.998;2024-02-15T10:37:51;17.04;38.07
83808;SHT31;73824;40.292;17.998;2024-02-15T10:40:18;16.80;40.13
83808;SHT31;73824;40.292;17.998;2024-02-15T10:42:48;16.79;38.62
83808;SHT31;73824;40.292;17.998;2024-02-15T10:45:15;17.03;37.09
83808;SHT31;73824;40.292;17.998;2024-02-15T10:47:44;16.90;38.20
83808;SHT31;73824;40.292;17.998;2024-02-15T10:50:11;17.10;36.59
83808;SHT31;73824;40.292;17.998;2024-02-15T10:52:45;16.71;35.89
83808;SHT31;73824;40.292;17.998;2024-02-15T10:55:21;17.06;37.34
83808;SHT31;73824;40.292;17.998;2024-02-15T10:57:51;17.10;37.07
83808;SHT31;73824;40.292;17.998;2024-02-15T11:00:19;17.09;36.63
83808;SHT31;73824;40.292;17.998;2024-02-15T11:03:00;16.89;34.01
83808;SHT31;73824;40.292;17.998;2024-02-15T11:05:33;16.96;33.94
83808;SHT31;73824;40.292;17.998;2024-02-15T11:08:01;16.55;34.59
83808;SHT31;73824;40.292;17.998;2024-02-15T11:10:30;16.66;37.70
83808;SHT31;73824;40.292;17.998;2024-02-15T11:12:56;16.56;38.20
83808;SHT31;73824;40.292;17.998;2024-02-15T11:18:03;16.77;37.30
83808;SHT31;73824;40.292;17.998;2024-02-15T11:23:00;16.24;38.62
83808;SHT31;73824;40.292;17.998;2024-02-15T11:25:36;16.08;38.83
83808;SHT31;73824;40.292;17.998;2024-02-15T11:30:46;16.14;39.22
83808;SHT31;73824;40.292;17.998;2024-02-15T11:33:30;16.08;37.80
83808;SHT31;73824;40.292;17.998;2024-02-15T11:38:32;16.28;37.50
83808;SHT31;73824;40.292;17.998;2024-02-15T11:41:05;16.21;36.96
83808;SHT31;73824;40.292;17.998;2024-02-15T11:46:13;16.18;36.13
83808;SHT31;73824;40.292;17.998;2024-02-15T11:48:39;16.55;37.43
83808;SHT31;73824;40.292;17.998;2024-02-15T11:51:05;16.28;35.84
83808;SHT31;73824;40.292;17.998;2024-02-15T11:53:32;16.07;35.97
83808;SHT31;73824;40.292;17.998;2024-02-15T11:56:01;16.13;35.29
83808;SHT31;73824;40.292;17.998;2024-02-15T11:58:28;16.29;33.34
83808;SHT31;73824;40.292;17.998;2024-02-15T12:01:11;16.52;33.89
83808;SHT31;73824;40.292;17.998;2024-02-15T12:03:56;16.56;33.43
83808;SHT31;73824;40.292;17.998;2024-02-15T12:06:40;16.59;32.51
83808;SHT31;73824;40.292;17.998;2024-02-15T12:09:24;17.20;32.01
83808;SHT31;73824;40.292;17.998;2024-02-15T12:12:11;17.17;32.26
83808;SHT31;73824;40.292;17.998;2024-02-15T12:14:59;17.16;31.32
83808;SHT31;73824;40.292;17.998;2024-02-15T12:17:43;17.27;30.20
83808;SHT31;73824;40.292;17.998;2024-02-15T12:20:27;17.44;30.61
83808;SHT31;73824;40.292;17.998;2024-02-15T12:22:54;17.27;31.15
83808;SHT31;73824;40.292;17.998;2024-02-15T12:25:20;17.31;30.94
83808;SHT31;73824;40.292;17.998;2024-02-15T12:27:54;17.44;29.93
83808;SHT31;73824;40.292;17.998;2024-02-15T12:30:20;17.17;31.60
83808;SHT31;73824;40.292;17.998;2024-02-15T12:32:50;17.24;32.17
83808;SHT31;73824;40.292;17.998;2024-02-15T12:35:17;17.02;31.30
83808;SHT31;73824;40.292;17.998;2024-02-15T12:37:48;17.34;30.93
83808;SHT31;73824;40.292;17.998;2024-02-15T12:40:17;17.52;31.91
83808;SHT31;73824;40.292;17.998;2024-02-15T12:42:43;17.28;32.81
83808;SHT31;73824;40.292;17.998;2024-02-15T12:45:19;17.89;32.28
83808;SHT31;73824;40.292;17.998;2024-02-15T12:47:51;17.75;32.97
83808;SHT31;73824;40.292;17.998;2024-02-15T12:50:19;17.52;33.91
83808;SHT31;73824;40.292;17.998;2024-02-15T12:52:47;17.31;34.90
83808;SHT31;73824;40.292;17.998;2024-02-15T12:55:17;17.06;35.95
83808;SHT31;73824;40.292;17.998;2024-02-15T12:57:49;16.61;37.80
83808;SHT31;73824;40.292;17.998;2024-02-15T13:00:21;16.68;37.57
83808;SHT31;73824;40.292;17.998;2024-02-15T13:02:48;16.76;37.86
83808;SHT31;73824;40.292;17.998;2024-02-15T13:05:18;16.92;38.10
83808;SHT31;73824;40.292;17.998;2024-02-15T13:07:45;16.94;38.65
83808;SHT31;73824;40.292;17.998;2024-02-15T13:10:11;16.90;39.07
83808;SHT31;73824;40.292;17.998;2024-02-15T13:12:40;16.45;38.11
83808;SHT31;73824;40.292;17.998;2024-02-15T13:15:06;16.25;38.95
83808;SHT31;73824;40.292;17.998;2024-02-15T13:17:37;15.89;39.05
83808;SHT31;73824;40.292;17.998;2024-02-15T13:20:03;16.00;39.79
83808;SHT31;73824;40.292;17.998;2024-02-15T13:22:36;16.04;41.10
83808;SHT31;73824;40.292;17.998;2024-02-15T13:25:05;16.14;40.78
83808;SHT31;73824;40.292;17.998;2024-02-15T13:27:33;16.04;40.69
83808;SHT31;73824;40.292;17.998;2024-02-15T13:29:58;15.73;40.76
83808;SHT31;73824;40.292;17.998;2024-02-15T13:32:24;15.76;42.02
83808;SHT31;73824;40.292;17.998;2024-02-15T13:34:49;15.69;41.55
83808;SHT31;73824;40.292;17.998;2024-02-15T13:37:20;15.82;42.29
83808;SHT31;73824;40.292;17.998;2024-02-15T13:39:49;15.89;42.78
83808;SHT31;73824;40.292;17.998;2024-02-15T13:42:15;15.79;42.85
83808;SHT31;73824;40.292;17.998;2024-02-15T13:44:42;15.74;43.23
83808;SHT31;73824;40.292;17.998;2024-02-15T13:47:08;15.76;43.25
83808;SHT31;73824;40.292;17.998;2024-02-15T13:49:34;15.79;43.63
83808;SHT31;73824;40.292;17.998;2024-02-15T13:52:00;15.70;43.69
83808;SHT31;73824;40.292;17.998;2024-02-15T13:54:32;15.74;43.61
83808;SHT31;73824;40.292;17.998;2024-02-15T13:57:00;15.65;44.39
83808;SHT31;73824;40.292;17.998;2024-02-15T13:59:27;15.53;44.64
83808;SHT31;73824;40.292;17.998;2024-02-15T14:01:53;15.70;44.16
83808;SHT31;73824;40.292;17.998;2024-02-15T14:04:19;15.66;44.16
83808;SHT31;73824;40.292;17.998;2024-02-15T14:06:45;15.69;44.22
83808;SHT31;73824;40.292;17.998;2024-02-15T14:09:12;15.56;44.19
83808;SHT31;73824;40.292;17.998;2024-02-15T14:11:38;15.55;44.78
83808;SHT31;73824;40.292;17.998;2024-02-15T14:14:05;15.41;45.07
83808;SHT31;73824;40.292;17.998;2024-02-15T14:16:32;15.43;45.15
83808;SHT31;73824;40.292;17.998;2024-02-15T14:18:58;15.48;45.26
83808;SHT31;73824;40.292;17.998;2024-02-15T14:21:24;15.38;45.45
83808;SHT31;73824;40.292;17.998;2024-02-15T14:23:50;15.28;44.98
83808;SHT31;73824;40.292;17.998;2024-02-15T14:26:16;15.43;44.88
83808;SHT31;73824;40.292;17.998;2024-02-15T14:28:42;15.29;44.95
83808;SHT31;73824;40.292;17.998;2024-02-15T14:31:10;15.35;45.65
83808;SHT31;73824;40.292;17.998;2024-02-15T14:33:55;15.39;45.53
83808;SHT31;73824;40.292;17.998;2024-02-15T14:36:21;15.43;45.86
83808;SHT31;73824;40.292;17.998;2024-02-15T14:38:46;15.49;45.91
83808;SHT31;73824;40.292;17.998;2024-02-15T14:41:14;15.53;44.48
83808;SHT31;73824;40.292;17.998;2024-02-15T14:43:41;15.43;43.85
83808;SHT31;73824;40.292;17.998;2024-02-15T14:46:06;15.41;45.09
83808;SHT31;73824;40.292;17.998;2024-02-15T14:48:35;15.41;45.21
83808;SHT31;73824;40.292;17.998;2024-02-15T14:51:01;15.28;44.72
83808;SHT31;73824;40.292;17.998;2024-02-15T14:53:28;15.35;44.42
83808;SHT31;73824;40.292;17.998;2024-02-15T14:55:53;15.29;44.98
83808;SHT31;73824;40.292;17.998;2024-02-15T14:58:20;15.28;45.40
83808;SHT31;73824;40.292;17.998;2024-02-15T15:00:47;15.24;45.55
83808;SHT31;73824;40.292;17.998;2024-02-15T15:03:13;15.25;45.42
83808;SHT31;73824;40.292;17.998;2024-02-15T15:05:39;15.25;44.84
83808;SHT31;73824;40.292;17.998;2024-02-15T15:08:23;15.00;45.44
83808;SHT31;73824;40.292;17.998;2024-02-15T15:11:08;14.94;45.46
83808;SHT31;73824;40.292;17.998;2024-02-15T15:13:52;14.80;45.55
83808;SHT31;73824;40.292;17.998;2024-02-15T15:16:17;14.66;45.32
83808;SHT31;73824;40.292;17.998;2024-02-15T15:18:46;14.73;44.89
83808;SHT31;73824;40.292;17.998;2024-02-15T15:21:13;14.84;44.64
83808;SHT31;73824;40.292;17.998;2024-02-15T15:23:38;14.70;45.17
83808;SHT31;73824;40.292;17.998;2024-02-15T15:26:05;14.73;45.50
83808;SHT31;73824;40.292;17.998;2024-02-15T15:28:31;14.69;46.19
83808;SHT31;73824;40.292;17.998;2024-02-15T15:30:57;14.45;47.03
83808;SHT31;73824;40.292;17.998;2024-02-15T15:33:23;14.49;47.38
83808;SHT31;73824;40.292;17.998;2024-02-15T15:35:49;14.37;47.71
83808;SHT31;73824;40.292;17.998;2024-02-15T15:38:15;14.29;47.71
83808;SHT31;73824;40.292;17.998;2024-02-15T15:40:41;14.19;48.02